Time;durP1;ratioP1;P1;durP2;ratioP2;P2;SDS_P1;SDS_P2;PMS_P1;PMS_P2;Temp;Humidity;BMP_temperature;BMP_pressure;BME280_temperature;BME280_humidity;BME280_pressure;Samples;Min_cycle;Max_cycle;Signal;HPM_P1;HPM_P2
2021/04/03 00:00:41;;;;;;;14.95;6.60;;;;;;;8.99;58.38;101118.47;5065337;28;20066;-65
2021/04/03 00:03:07;;;;;;;14.50;5.75;;;;;;;8.52;59.66;101122.56;5057535;28;20029;-65
2021/04/03 00:05:33;;;;;;;14.02;7.18;;;;;;;8.64;59.10;101120.03;5058017;28;20028;-65
2021/04/03 00:07:59;;;;;;;11.43;6.20;;;;;;;8.79;58.16;101121.91;5064112;28;20032;-66
2021/04/03 00:10:33;;;;;;;15.45;6.30;;;;;;;8.53;59.12;101119.97;5044669;28;20075;-66
2021/04/03 00:12:59;;;;;;;22.33;7.38;;;;;;;8.60;58.43;101113.91;5062211;28;20561;-66
2021/04/03 00:15:25;;;;;;;12.85;5.88;;;;;;;8.56;58.74;101120.00;5063502;28;20040;-66
2021/04/03 00:17:50;;;;;;;13.63;5.75;;;;;;;8.49;58.54;101112.91;5055832;28;20523;-66
2021/04/03 00:20:17;;;;;;;15.60;5.72;;;;;;;8.67;58.37;101100.81;5057109;28;20028;-66
2021/04/03 00:22:44;;;;;;;15.95;6.32;;;;;;;8.02;60.05;101106.44;5061837;28;20090;-66
2021/04/03 00:25:10;;;;;;;15.27;6.53;;;;;;;8.36;59.50;101108.47;5063196;28;20024;-66
2021/04/03 00:27:35;;;;;;;18.27;6.88;;;;;;;8.48;58.39;101105.91;5059911;28;20059;-66
2021/04/03 00:30:14;;;;;;;12.15;6.80;;;;;;;8.54;58.52;101116.47;5061561;28;20064;-66
2021/04/03 00:33:01;;;;;;;15.43;7.05;;;;;;;8.11;59.54;101111.78;5060933;28;20040;-66
2021/04/03 00:35:28;;;;;;;20.45;6.78;;;;;;;7.70;60.12;101102.63;5059804;28;20032;-66
2021/04/03 00:37:54;;;;;;;13.77;6.63;;;;;;;7.85;59.90;101106.28;5057461;28;20033;-66
2021/04/03 00:40:22;;;;;;;12.15;6.07;;;;;;;7.99;59.27;101109.91;5051735;28;20538;-66
2021/04/03 00:42:49;;;;;;;13.63;7.25;;;;;;;6.98;63.45;101109.72;5051144;28;20454;-66
2021/04/03 00:45:16;;;;;;;15.25;5.80;;;;;;;6.98;64.02;101108.84;5062288;28;20029;-66
2021/04/03 00:47:42;;;;;;;15.82;6.25;;;;;;;7.00;63.45;101102.75;5065199;28;20020;-66
2021/04/03 00:50:08;;;;;;;17.08;7.18;;;;;;;7.45;61.99;101107.66;5056878;28;20032;-66
2021/04/03 00:52:35;;;;;;;15.57;6.90;;;;;;;7.49;61.91;101105.94;5063546;28;20017;-66
2021/04/03 00:55:02;;;;;;;13.13;5.95;;;;;;;8.07;59.77;101107.38;5060096;28;20028;-65
2021/04/03 00:57:27;;;;;;;16.35;6.35;;;;;;;8.13;60.09;101119.69;5059594;28;20024;-66
2021/04/03 00:59:52;;;;;;;12.52;6.28;;;;;;;8.19;59.68;101103.94;5055184;28;20506;-65
2021/04/03 01:02:18;;;;;;;12.80;7.05;;;;;;;8.21;60.09;101110.97;5062079;28;20500;-66
2021/04/03 01:04:43;;;;;;;13.88;6.50;;;;;;;7.54;61.30;101109.50;5064293;28;20108;-65
2021/04/03 01:07:08;;;;;;;11.45;6.35;;;;;;;7.95;60.60;101111.66;5066666;28;20020;-65
2021/04/03 01:09:36;;;;;;;15.27;6.90;;;;;;;7.88;61.16;101107.19;5058446;28;20027;-65
2021/04/03 01:12:19;;;;;;;16.35;7.25;;;;;;;7.81;60.85;101105.38;5065288;28;20423;-66
2021/04/03 01:15:25;;;;;;;18.30;6.88;;;;;;;8.16;60.39;101109.16;5058810;28;20099;-66
2021/04/03 01:18:19;;;;;;;12.40;6.55;;;;;;;7.92;60.64;101105.47;5062967;28;20434;-66
2021/04/03 01:20:50;;;;;;;18.13;7.45;;;;;;;7.85;61.65;101108.91;5070142;28;20029;-65
2021/04/03 01:23:44;;;;;;;14.43;6.17;;;;;;;8.08;59.96;101117.00;5058928;28;20083;-66
2021/04/03 01:26:12;;;;;;;14.45;5.85;;;;;;;7.69;62.12;101119.25;5063850;28;20544;-65
2021/04/03 01:29:25;;;;;;;14.25;5.78;;;;;;;7.82;61.15;101115.00;5069331;28;20033;-66
2021/04/03 01:31:51;;;;;;;18.52;7.32;;;;;;;8.18;59.37;101124.09;4990966;28;20044;-66
2021/04/03 01:34:22;;;;;;;19.40;6.65;;;;;;;8.31;59.26;101122.41;5046871;28;20029;-66
2021/04/03 01:36:47;;;;;;;;;;;;;;;8.02;59.95;101115.19;5058303;28;20040;-66
2021/04/03 01:39:16;;;;;;;18.67;6.87;;;;;;;7.54;60.24;101117.38;5061777;28;20174;-66
2021/04/03 01:41:45;;;;;;;17.48;6.43;;;;;;;8.08;60.09;101114.38;5062729;28;20699;-65
2021/04/03 01:44:12;;;;;;;13.32;5.53;;;;;;;8.00;59.88;101114.28;5065785;28;20082;-66
2021/04/03 01:46:38;;;;;;;10.45;5.57;;;;;;;7.88;60.35;101111.56;5056460;28;20029;-66
2021/04/03 01:49:09;;;;;;;14.48;6.35;;;;;;;7.00;62.64;101110.63;5047784;28;20036;-66
2021/04/03 01:51:35;;;;;;;16.80;6.45;;;;;;;7.85;60.04;101114.16;5064429;28;20032;-65
2021/04/03 01:54:01;;;;;;;12.52;5.38;;;;;;;7.97;59.92;101111.63;5059825;28;20060;-65
2021/04/03 01:56:27;;;;;;;14.23;5.90;;;;;;;7.81;59.79;101122.00;5067271;28;20060;-66
2021/04/03 01:58:54;;;;;;;14.57;5.70;;;;;;;7.63;60.96;101119.19;5059496;28;20033;-66
2021/04/03 02:01:19;;;;;;;12.30;6.13;;;;;;;7.25;61.26;101118.81;5060985;28;20119;-66
2021/04/03 02:03:46;;;;;;;15.60;6.13;;;;;;;7.38;61.72;101118.94;5059563;28;20036;-66
2021/04/03 02:06:11;;;;;;;12.93;7.25;;;;;;;7.55;61.35;101114.75;5061545;28;20025;-66
2021/04/03 02:08:38;;;;;;;16.95;6.57;;;;;;;7.36;61.93;101125.91;5063304;28;20031;-66
2021/04/03 02:11:05;;;;;;;18.45;6.13;;;;;;;7.20;61.61;101128.34;5062319;28;20033;-66
2021/04/03 02:13:31;;;;;;;13.45;5.85;;;;;;;7.31;62.02;101128.50;5042332;28;20071;-66
2021/04/03 02:15:59;;;;;;;13.88;5.93;;;;;;;7.02;63.26;101127.28;5067432;28;20097;-66
2021/04/03 02:18:24;;;;;;;12.40;5.40;;;;;;;7.00;62.94;101131.59;5060575;28;20025;-66
2021/04/03 02:20:50;;;;;;;9.32;5.18;;;;;;;6.91;62.46;101132.34;5064162;28;20155;-66
2021/04/03 02:23:15;;;;;;;15.75;5.97;;;;;;;7.40;61.82;101127.72;5061719;28;20067;-65
2021/04/03 02:25:41;;;;;;;9.93;6.47;;;;;;;7.31;62.11;101131.97;5040749;28;20033;-66
2021/04/03 02:28:06;;;;;;;15.20;5.90;;;;;;;7.23;61.99;101131.00;5056723;28;20032;-66
2021/04/03 02:30:31;;;;;;;16.95;6.13;;;;;;;7.21;61.95;101134.47;5058609;28;20476;-65
2021/04/03 02:32:57;;;;;;;15.75;5.88;;;;;;;7.96;60.53;101133.53;5061938;28;20507;-65
2021/04/03 02:35:24;;;;;;;15.20;5.57;;;;;;;7.40;60.85;101146.09;5063755;28;20024;-65
2021/04/03 02:38:03;;;;;;;13.38;6.45;;;;;;;6.73;63.35;101146.09;5073619;28;20415;-65
2021/04/03 02:40:31;;;;;;;16.98;6.47;;;;;;;7.03;62.64;101143.88;5054423;28;20037;-65
2021/04/03 02:43:06;;;;;;;15.57;5.63;;;;;;;6.38;64.69;101146.44;5063248;28;20032;-65
2021/04/03 02:45:44;;;;;;;12.50;6.43;;;;;;;7.17;62.04;101147.56;5061564;28;20088;-65
2021/04/03 02:48:17;;;;;;;15.57;5.47;;;;;;;6.82;62.57;101147.06;5060884;28;20040;-65
2021/04/03 02:50:43;;;;;;;18.40;7.25;;;;;;;6.46;63.65;101152.69;5063676;28;20544;-64
2021/04/03 02:53:12;;;;;;;11.98;5.55;;;;;;;6.91;62.84;101149.84;5061626;28;20423;-65
2021/04/03 02:55:40;;;;;;;14.57;5.18;;;;;;;7.01;62.03;101153.47;5063286;28;20032;-66
2021/04/03 02:58:06;;;;;;;12.60;5.88;;;;;;;6.57;63.38;101159.84;5067448;28;20059;-65
2021/04/03 03:00:31;;;;;;;13.20;6.57;;;;;;;6.91;62.94;101165.59;5062523;28;20514;-65
2021/04/03 03:02:57;;;;;;;22.63;6.90;;;;;;;6.92;62.86;101167.34;5057014;28;20037;-66
2021/04/03 03:05:23;;;;;;;15.95;6.13;;;;;;;6.70;63.38;101155.66;5064600;28;20442;-65
2021/04/03 03:07:49;;;;;;;19.33;6.50;;;;;;;6.86;62.70;101162.00;5066563;28;20032;-65
2021/04/03 03:10:15;;;;;;;11.90;6.10;;;;;;;6.68;62.78;101169.63;5053813;28;20047;-65
2021/04/03 03:12:43;;;;;;;19.77;6.10;;;;;;;6.54;64.01;101172.03;5056007;28;20108;-65
2021/04/03 03:15:09;;;;;;;15.25;5.20;;;;;;;6.89;62.58;101175.16;5057074;28;20020;-65
2021/04/03 03:17:36;;;;;;;12.90;6.22;;;;;;;6.63;63.06;101186.13;5057541;28;20537;-66
2021/04/03 03:20:02;;;;;;;15.32;7.03;;;;;;;6.46;63.26;101196.34;5057292;28;20063;-65
2021/04/03 03:22:28;;;;;;;11.27;5.57;;;;;;;6.76;62.02;101190.72;5057936;28;20029;-65
2021/04/03 03:24:53;;;;;;;14.05;5.88;;;;;;;6.84;62.34;101200.44;5064465;28;20436;-65
2021/04/03 03:27:19;;;;;;;13.68;5.35;;;;;;;7.11;61.40;101197.34;5057432;28;20069;-66
2021/04/03 03:29:45;;;;;;;14.82;5.90;;;;;;;7.61;59.59;101194.44;5058519;28;20086;-64
2021/04/03 03:32:11;;;;;;;13.88;6.30;;;;;;;7.73;59.29;101194.56;5058123;28;20395;-66
2021/04/03 03:34:36;;;;;;;18.75;5.93;;;;;;;8.08;57.37;101196.69;5065231;28;20028;-66
2021/04/03 03:37:02;;;;;;;19.05;6.05;;;;;;;7.69;58.45;101203.28;5060615;28;20624;-66
2021/04/03 03:39:28;;;;;;;13.88;5.50;;;;;;;7.41;59.28;101201.19;5059089;28;20442;-66
2021/04/03 03:41:58;;;;;;;16.30;5.05;;;;;;;6.54;62.60;101203.47;5058259;28;20033;-65
2021/04/03 03:44:24;;;;;;;13.48;4.35;;;;;;;6.89;60.27;101201.38;5045984;28;20052;-65
2021/04/03 03:46:50;;;;;;;16.42;6.35;;;;;;;7.08;60.44;101202.53;5061740;28;20480;-65
2021/04/03 03:49:15;;;;;;;16.50;6.03;;;;;;;6.58;62.47;101208.78;5059646;28;20029;-65
2021/04/03 03:51:41;;;;;;;11.48;5.07;;;;;;;6.56;62.07;101211.38;5056888;28;20035;-66
2021/04/03 03:54:06;;;;;;;15.95;4.82;;;;;;;6.65;61.42;101216.78;5063151;28;20438;-65
2021/04/03 03:56:31;;;;;;;16.08;5.65;;;;;;;6.74;61.76;101210.78;5061208;28;20110;-65
2021/04/03 03:58:57;;;;;;;15.05;5.65;;;;;;;6.34;62.64;101215.38;5059226;28;20020;-66
2021/04/03 04:01:22;;;;;;;22.05;5.68;;;;;;;6.62;62.01;101214.09;5039943;28;20021;-65
2021/04/03 04:03:48;;;;;;;16.58;5.07;;;;;;;6.70;62.13;101216.81;5057450;28;20025;-65
2021/04/03 04:06:13;;;;;;;18.35;5.53;;;;;;;6.25;62.92;101217.00;5052318;28;20021;-65
2021/04/03 04:08:39;;;;;;;12.57;4.63;;;;;;;6.48;62.23;101229.59;5047767;28;20024;-65
2021/04/03 04:11:05;;;;;;;10.23;5.00;;;;;;;6.44;61.99;101227.78;5054116;28;20029;-66
2021/04/03 04:13:30;;;;;;;11.52;4.38;;;;;;;6.54;62.95;101232.31;5058490;28;20123;-66
2021/04/03 04:15:56;;;;;;;10.30;5.30;;;;;;;6.64;61.53;101245.59;5057383;28;20066;-66
2021/04/03 04:18:21;;;;;;;13.05;5.00;;;;;;;6.45;62.14;101228.66;5059334;28;20116;-66
2021/04/03 04:20:46;;;;;;;14.52;5.03;;;;;;;6.03;63.22;101242.78;5056191;28;20027;-65
2021/04/03 04:23:12;;;;;;;8.52;4.43;;;;;;;6.23;63.54;101250.13;5057037;28;20641;-65
2021/04/03 04:25:37;;;;;;;15.38;5.45;;;;;;;6.16;63.56;101235.16;5063167;28;20032;-65
2021/04/03 04:28:03;;;;;;;15.38;4.60;;;;;;;6.49;61.58;101246.19;5056580;28;20487;-66
2021/04/03 04:30:28;;;;;;;12.30;4.30;;;;;;;6.14;63.41;101242.09;5061257;28;20447;-65
2021/04/03 04:32:53;;;;;;;10.32;4.93;;;;;;;5.90;63.14;101246.88;5063236;28;20108;-65
2021/04/03 04:35:19;;;;;;;14.85;5.13;;;;;;;6.11;63.05;101244.66;5054726;28;20033;-65
2021/04/03 04:37:44;;;;;;;12.85;5.65;;;;;;;6.09;62.84;101254.22;5061230;28;20033;-66
2021/04/03 04:40:12;;;;;;;18.40;4.65;;;;;;;6.41;61.85;101244.31;5062693;28;20036;-66
2021/04/03 04:42:41;;;;;;;12.25;4.45;;;;;;;6.60;60.82;101249.00;5059989;28;20047;-66
2021/04/03 04:45:11;;;;;;;14.45;4.72;;;;;;;5.97;62.63;101242.63;5061482;28;20033;-65
2021/04/03 04:47:36;;;;;;;15.75;5.05;;;;;;;5.94;62.61;101241.69;5063779;28;20032;-66
2021/04/03 04:50:03;;;;;;;14.63;5.05;;;;;;;5.78;64.32;101250.09;5061450;28;20047;-65
2021/04/03 04:52:29;;;;;;;15.75;4.50;;;;;;;5.68;63.66;101240.34;5066376;28;20051;-65
2021/04/03 04:54:54;;;;;;;12.07;4.55;;;;;;;5.92;62.86;101244.28;5062775;28;20535;-65
2021/04/03 04:57:19;;;;;;;16.33;5.57;;;;;;;6.14;61.66;101244.72;5071741;28;20036;-65
2021/04/03 04:59:45;;;;;;;16.80;6.03;;;;;;;6.40;62.00;101241.66;5061078;28;20039;-65
2021/04/03 05:02:10;;;;;;;13.95;5.22;;;;;;;6.62;61.21;101255.16;5069691;28;20047;-65
2021/04/03 05:04:35;;;;;;;14.52;5.25;;;;;;;6.24;62.45;101257.13;5051243;28;20036;-65
2021/04/03 05:07:01;;;;;;;16.50;6.20;;;;;;;6.58;61.28;101261.19;5063004;28;20052;-65
2021/04/03 05:09:26;;;;;;;14.93;5.95;;;;;;;6.70;61.06;101261.41;5059777;28;20608;-65
2021/04/03 05:11:51;;;;;;;15.30;6.22;;;;;;;6.97;59.21;101264.44;5063987;28;20032;-65
2021/04/03 05:14:16;;;;;;;12.85;4.88;;;;;;;6.38;61.58;101264.34;5062005;28;20016;-66
2021/04/03 05:16:42;;;;;;;16.52;5.82;;;;;;;6.43;62.21;101261.81;5064454;28;20044;-66
2021/04/03 05:19:07;;;;;;;12.68;6.85;;;;;;;7.12;59.38;101271.66;5056207;28;20468;-66
2021/04/03 05:21:32;;;;;;;14.00;6.53;;;;;;;6.99;59.36;101274.09;5057768;28;20053;-65
2021/04/03 05:23:58;;;;;;;15.38;6.40;;;;;;;6.90;61.38;101279.19;5058081;28;20025;-65
2021/04/03 05:26:23;;;;;;;18.77;5.35;;;;;;;6.02;63.72;101289.84;5060721;28;20098;-66
2021/04/03 05:28:48;;;;;;;16.42;6.00;;;;;;;6.65;62.47;101291.91;5057902;28;20028;-66
2021/04/03 05:31:14;;;;;;;16.85;7.15;;;;;;;7.37;59.94;101291.25;5060258;28;20029;-66
2021/04/03 05:33:39;;;;;;;14.07;5.65;;;;;;;7.43;59.61;101293.09;5064400;28;20028;-66
2021/04/03 05:36:04;;;;;;;13.57;6.00;;;;;;;7.58;58.83;101289.81;5063627;28;20033;-66
2021/04/03 05:38:30;;;;;;;12.43;6.28;;;;;;;7.28;60.77;101291.13;5058025;28;20094;-66
2021/04/03 05:40:56;;;;;;;15.80;6.05;;;;;;;7.80;58.81;101304.06;5063436;28;20078;-65
2021/04/03 05:43:22;;;;;;;13.25;6.00;;;;;;;8.47;56.56;101304.81;5057996;28;20037;-65
2021/04/03 05:45:52;;;;;;;18.60;5.57;;;;;;;8.50;56.72;101298.69;5064582;28;20487;-66
2021/04/03 05:48:18;;;;;;;14.52;6.75;;;;;;;8.85;55.41;101299.94;5070027;28;20025;-65
2021/04/03 05:50:43;;;;;;;17.10;6.47;;;;;;;9.54;54.48;101301.25;5058588;28;20396;-65
2021/04/03 05:53:08;;;;;;;12.93;5.97;;;;;;;9.69;53.59;101308.34;5065803;28;20383;-66
2021/04/03 05:55:34;;;;;;;18.92;6.28;;;;;;;9.82;53.09;101317.19;5061260;28;20031;-66
2021/04/03 05:57:59;;;;;;;15.48;5.10;;;;;;;10.22;52.04;101319.09;5060554;28;20017;-66
2021/04/03 06:00:25;;;;;;;12.35;5.85;;;;;;;12.43;47.04;101309.94;5061378;28;20064;-67
2021/04/03 06:02:51;;;;;;;12.70;5.43;;;;;;;15.49;40.40;101316.69;5060434;28;20660;-66
2021/04/03 06:05:16;;;;;;;14.25;5.22;;;;;;;16.15;38.23;101315.38;5061183;28;20039;-67
2021/04/03 06:07:41;;;;;;;10.35;4.63;;;;;;;13.72;42.01;101329.13;5057695;28;20021;-66
2021/04/03 06:10:08;;;;;;;13.07;4.53;;;;;;;12.76;44.46;101328.22;5061687;28;20044;-66
2021/04/03 06:12:48;;;;;;;9.55;4.75;;;;;;;11.78;46.51;101334.03;5059263;28;20333;-66
2021/04/03 06:15:34;;;;;;;13.20;5.03;;;;;;;11.26;48.70;101339.44;5061866;28;20116;-67
2021/04/03 06:18:01;;;;;;;9.00;5.68;;;;;;;9.48;52.20;101346.84;5063354;28;20025;-66
2021/04/03 06:20:35;;;;;;;14.93;5.68;;;;;;;9.14;54.65;101353.66;5073793;28;20030;-66
2021/04/03 06:23:01;;;;;;;13.65;7.10;;;;;;;9.30;53.87;101355.50;5064804;28;20024;-65
2021/04/03 06:25:27;;;;;;;10.45;5.07;;;;;;;8.73;55.12;101363.81;5066898;28;20456;-66
2021/04/03 06:28:05;;;;;;;9.88;6.32;;;;;;;8.55;56.17;101364.50;5063917;28;20104;-67
2021/04/03 06:30:33;;;;;;;15.50;7.13;;;;;;;9.03;55.12;101356.22;5059057;28;20151;-67
2021/04/03 06:33:16;;;;;;;15.13;7.43;;;;;;;9.21;54.23;101368.63;5066371;28;20025;-66
2021/04/03 06:35:41;;;;;;;13.93;6.95;;;;;;;9.96;52.96;101371.69;5072652;28;20493;-66
2021/04/03 06:38:24;;;;;;;13.18;6.60;;;;;;;8.90;55.14;101373.63;5057268;28;20021;-66
2021/04/03 06:40:50;;;;;;;13.68;6.68;;;;;;;10.42;52.17;101386.81;5060910;28;20028;-66
2021/04/03 06:43:17;;;;;;;14.75;6.85;;;;;;;9.77;52.42;101391.81;5055014;28;20041;-66
2021/04/03 06:45:44;;;;;;;13.95;5.95;;;;;;;10.85;50.01;101391.34;5062695;28;20029;-66
2021/04/03 06:48:11;;;;;;;14.77;6.93;;;;;;;12.36;46.97;101395.50;5066534;28;20070;-66
2021/04/03 06:50:42;;;;;;;15.90;5.95;;;;;;;13.91;44.27;101394.28;5059003;28;20028;-66
2021/04/03 06:53:15;;;;;;;11.43;5.75;;;;;;;15.97;39.21;101386.69;5065719;28;20137;-67
2021/04/03 06:55:42;;;;;;;11.98;5.88;;;;;;;17.43;37.90;101378.91;5060005;28;20507;-67
2021/04/03 06:58:08;;;;;;;12.48;6.38;;;;;;;17.35;36.25;101388.91;5060793;28;20052;-65
2021/04/03 07:00:35;;;;;;;17.63;6.13;;;;;;;22.21;29.66;101386.72;5060464;28;20035;-67
2021/04/03 07:03:17;;;;;;;13.20;5.68;;;;;;;23.08;27.09;101381.69;5063285;28;20032;-68
2021/04/03 07:05:44;;;;;;;13.70;5.35;;;;;;;22.04;29.18;101383.03;5060410;28;20115;-68
2021/04/03 07:08:10;;;;;;;12.57;6.45;;;;;;;24.39;26.26;101393.69;5058387;28;20133;-67
2021/04/03 07:10:36;;;;;;;12.35;6.88;;;;;;;18.51;31.50;101405.25;5065808;28;20029;-68
2021/04/03 07:13:02;;;;;;;10.27;7.57;;;;;;;15.74;37.20;101406.59;5062453;28;20028;-68
2021/04/03 07:15:28;;;;;;;10.60;6.18;;;;;;;14.37;39.31;101411.41;5061725;28;20178;-68
2021/04/03 07:17:54;;;;;;;17.45;9.35;;;;;;;16.62;36.39;101416.38;5064156;28;20547;-68
2021/04/03 07:20:21;;;;;;;10.85;7.07;;;;;;;16.47;37.65;101417.59;5061829;28;20036;-67
2021/04/03 07:23:01;;;;;;;12.73;6.90;;;;;;;20.10;30.98;101419.56;5055643;28;20056;-68
2021/04/03 07:25:31;;;;;;;20.05;9.00;;;;;;;23.77;27.27;101415.88;5056266;28;20104;-68
2021/04/03 07:27:57;;;;;;;9.10;7.20;;;;;;;21.67;29.68;101420.44;5066540;28;20056;-68
2021/04/03 07:30:44;;;;;;;9.73;7.10;;;;;;;21.69;28.82;101424.84;5063156;28;20463;-66
2021/04/03 07:33:14;;;;;;;12.05;5.68;;;;;;;20.75;30.30;101436.75;5067269;28;20036;-68
2021/04/03 07:35:54;;;;;;;10.45;5.00;;;;;;;16.99;35.33;101441.28;5061393;28;20029;-65
2021/04/03 11:36:49;;;;;;;12.68;5.53;;;;;;;23.99;20.61;101409.31;5116970;27;20401;-65
2021/04/03 11:39:15;;;;;;;13.02;3.05;;;;;;;26.39;17.49;101415.13;5066246;28;20044;-65
2021/04/03 11:41:40;;;;;;;49.35;12.82;;;;;;;26.11;19.36;101422.25;5047519;28;20074;-66
2021/04/03 11:44:06;;;;;;;12.77;6.63;;;;;;;24.73;22.08;101426.81;5048093;28;20115;-66
2021/04/03 11:46:31;;;;;;;9.10;3.58;;;;;;;23.54;20.64;101424.22;5062838;28;20027;-66
2021/04/03 11:48:57;;;;;;;5.35;1.25;;;;;;;22.35;21.15;101425.50;5064814;28;20040;-65
2021/04/03 11:51:22;;;;;;;5.80;2.15;;;;;;;24.94;18.92;101415.75;5062766;28;20075;-65
2021/04/03 11:53:50;;;;;;;3.47;1.15;;;;;;;25.46;18.58;101415.44;5063814;28;20033;-66
2021/04/03 11:56:16;;;;;;;8.60;1.42;;;;;;;24.79;17.04;101414.78;5064168;28;20252;-66
2021/04/03 11:58:41;;;;;;;5.78;1.55;;;;;;;27.92;17.49;101413.06;5046730;28;20473;-66
2021/04/03 12:01:06;;;;;;;6.75;1.52;;;;;;;29.24;14.98;101414.34;5063279;28;20051;-67
2021/04/03 12:03:32;;;;;;;2.78;1.42;;;;;;;27.19;16.34;101418.06;5065893;28;20047;-67
2021/04/03 12:05:57;;;;;;;11.93;1.90;;;;;;;25.16;18.68;101416.31;5064649;28;20381;-66
2021/04/03 12:08:22;;;;;;;3.03;1.30;;;;;;;23.41;18.85;101405.13;5064816;28;20391;-66
2021/04/03 12:10:50;;;;;;;19.40;5.03;;;;;;;22.68;20.13;101414.97;5065744;28;20055;-65
2021/04/03 12:13:15;;;;;;;287.25;56.60;;;;;;;25.97;19.54;101412.31;5064510;28;20032;-66
2021/04/03 12:15:40;;;;;;;48.22;7.80;;;;;;;27.01;15.42;101406.66;5063572;28;20020;-66
2021/04/03 12:18:06;;;;;;;25.75;11.30;;;;;;;24.59;18.20;101408.72;5073607;28;20024;-67
2021/04/03 12:20:32;;;;;;;313.48;26.58;;;;;;;24.83;18.48;101392.06;5064807;28;20593;-67
2021/04/03 12:22:59;;;;;;;15.45;4.78;;;;;;;27.19;17.52;101399.09;5066895;28;20029;-67
2021/04/03 12:25:24;;;;;;;18.77;3.17;;;;;;;24.98;17.90;101402.97;5065298;28;20472;-68
2021/04/03 12:27:49;;;;;;;161.05;14.82;;;;;;;24.03;19.49;101410.88;5065161;28;20028;-65
2021/04/03 12:30:15;;;;;;;834.70;78.25;;;;;;;21.70;22.00;101413.19;5066233;28;20397;-65
2021/04/03 12:32:41;;;;;;;68.60;9.00;;;;;;;23.46;20.87;101402.22;5066871;28;20031;-65
2021/04/03 12:35:07;;;;;;;150.68;12.15;;;;;;;22.21;21.82;101402.00;5065500;28;20031;-65
2021/04/03 12:37:32;;;;;;;23.13;8.70;;;;;;;20.46;23.60;101398.59;5067140;28;20067;-65
2021/04/03 12:39:57;;;;;;;38.72;9.98;;;;;;;20.93;23.51;101407.47;5067056;28;20040;-65
2021/04/03 12:42:23;;;;;;;113.15;10.60;;;;;;;18.63;21.77;101398.66;5065855;28;20107;-64
2021/04/03 12:44:48;;;;;;;18.25;6.05;;;;;;;18.53;24.23;101420.31;5065298;28;20063;-66
2021/04/03 12:47:13;;;;;;;23.42;4.57;;;;;;;19.66;23.63;101408.66;5057718;28;20043;-66
2021/04/03 12:49:39;;;;;;;14.75;2.67;;;;;;;19.64;22.55;101403.34;5053505;28;20082;-65
2021/04/03 12:52:04;;;;;;;24.05;4.72;;;;;;;19.52;23.78;101398.44;5052747;28;20033;-64
2021/04/03 12:54:30;;;;;;;5.28;1.60;;;;;;;18.62;24.83;101396.91;5051845;28;20028;-64
2021/04/03 12:56:55;;;;;;;12.10;2.00;;;;;;;18.10;24.24;101397.59;5053022;28;20512;-65
2021/04/03 12:59:22;;;;;;;19.55;3.33;;;;;;;17.70;24.97;101397.75;5051167;28;20028;-65
2021/04/03 13:01:47;;;;;;;7.88;1.83;;;;;;;17.70;25.66;101401.31;5051612;28;20037;-65
2021/04/03 13:04:12;;;;;;;3.75;1.25;;;;;;;19.17;26.75;101407.63;5052632;28;20033;-65
2021/04/03 13:06:38;;;;;;;2.85;1.60;;;;;;;19.43;24.90;101396.97;5050556;28;20028;-65
2021/04/03 13:09:05;;;;;;;10.98;2.30;;;;;;;19.18;24.35;101398.66;5050299;28;20024;-65
2021/04/03 13:11:31;;;;;;;1.13;0.95;;;;;;;17.67;24.82;101404.03;5050904;28;20028;-65
2021/04/03 13:13:57;;;;;;;2.13;1.00;;;;;;;18.10;24.37;101403.78;5047610;28;20028;-65
2021/04/03 13:16:23;;;;;;;4.20;1.30;;;;;;;17.79;23.89;101400.19;5049959;28;20024;-65
2021/04/03 13:18:48;;;;;;;4.95;1.23;;;;;;;17.93;23.78;101398.91;5081963;28;20138;-65
2021/04/03 13:21:13;;;;;;;2.33;1.83;;;;;;;18.27;23.90;101392.59;5050586;28;20036;-65
2021/04/03 13:23:39;;;;;;;2.05;1.42;;;;;;;18.37;25.08;101395.00;5049437;28;20029;-66
2021/04/03 13:26:04;;;;;;;4.43;1.42;;;;;;;17.78;25.81;101406.41;5051565;28;20028;-66
2021/04/03 13:28:29;;;;;;;3.72;1.60;;;;;;;18.83;25.93;101396.22;5050854;28;20078;-66
2021/04/03 13:30:55;;;;;;;6.65;2.38;;;;;;;17.88;26.07;101399.06;5052406;28;20082;-66
2021/04/03 13:33:20;;;;;;;1.33;1.15;;;;;;;18.30;26.55;101400.53;5050616;28;20536;-66
2021/04/03 13:35:45;;;;;;;16.08;2.15;;;;;;;18.05;26.17;101389.66;5051722;28;20029;-66
2021/04/03 13:38:11;;;;;;;1.38;1.27;;;;;;;18.40;26.87;101390.44;5051249;28;20036;-66
2021/04/03 13:40:37;;;;;;;1.38;1.27;;;;;;;18.91;26.30;101392.44;5034998;28;20029;-63
2021/04/03 13:43:02;;;;;;;2.22;1.10;;;;;;;19.39;25.27;101390.84;5052412;28;20029;-63
2021/04/03 13:45:28;;;;;;;6.18;1.10;;;;;;;18.74;24.18;101396.50;5048589;28;20025;-65
2021/04/03 13:47:53;;;;;;;16.30;2.50;;;;;;;18.29;22.28;101388.09;5066353;28;20499;-66
2021/04/03 13:50:18;;;;;;;2.00;1.20;;;;;;;17.27;24.82;101381.97;5049207;28;20174;-65
2021/04/03 13:52:44;;;;;;;20.35;2.45;;;;;;;17.55;23.27;101397.25;5051310;28;20025;-65
2021/04/03 13:55:09;;;;;;;4.47;1.40;;;;;;;17.05;21.87;101390.53;5049790;28;20027;-68
2021/04/03 13:57:35;;;;;;;1.60;0.93;;;;;;;17.59;22.89;101392.72;5045597;28;20046;-67
2021/04/03 14:00:00;;;;;;;1.67;1.08;;;;;;;17.56;22.81;101382.13;5049862;28;20061;-67
2021/04/03 14:02:25;;;;;;;4.60;1.70;;;;;;;18.03;23.55;101395.06;5052510;28;20629;-68
2021/04/03 14:04:51;;;;;;;1.70;0.95;;;;;;;18.12;24.00;101396.63;5051550;28;20134;-68
2021/04/03 14:07:16;;;;;;;8.82;1.23;;;;;;;17.65;22.35;101376.56;5048999;28;20029;-68
2021/04/03 14:09:42;;;;;;;4.15;1.10;;;;;;;17.72;21.80;101395.94;5048584;28;20354;-67
2021/04/03 14:12:08;;;;;;;1.58;0.77;;;;;;;17.81;22.35;101381.47;5039788;28;20107;-67
2021/04/03 14:14:34;;;;;;;1.83;1.05;;;;;;;17.79;22.65;101381.50;5050389;28;20033;-67
2021/04/03 14:16:59;;;;;;;1.67;1.08;;;;;;;17.85;24.38;101387.56;5050759;28;20049;-67
2021/04/03 14:19:24;;;;;;;2.15;1.02;;;;;;;17.89;25.71;101373.22;5051796;28;20029;-67
2021/04/03 14:21:49;;;;;;;3.78;1.40;;;;;;;18.24;25.18;101383.81;5050860;28;20119;-67
2021/04/03 14:24:15;;;;;;;2.35;0.75;;;;;;;18.18;24.62;101387.56;5048952;28;20482;-67
2021/04/03 14:26:40;;;;;;;9.13;1.35;;;;;;;17.05;25.13;101379.84;5051889;28;20021;-67
2021/04/03 14:29:05;;;;;;;1.10;1.00;;;;;;;16.97;25.04;101387.13;5052012;28;20481;-67
2021/04/03 14:31:32;;;;;;;3.80;1.27;;;;;;;17.68;24.45;101380.94;5051005;28;20500;-68
2021/04/03 14:33:57;;;;;;;2.05;0.80;;;;;;;17.13;23.77;101378.78;5051840;28;20117;-67
2021/04/03 14:36:22;;;;;;;9.50;2.05;;;;;;;17.07;23.84;101378.97;5050654;28;20127;-67
2021/04/03 14:38:48;;;;;;;1.27;1.02;;;;;;;16.85;23.55;101384.78;5050627;28;20079;-67
2021/04/03 14:41:13;;;;;;;1.98;0.90;;;;;;;16.47;22.90;101398.94;5051800;28;20036;-68
2021/04/03 14:43:38;;;;;;;5.85;1.10;;;;;;;16.21;23.29;101395.06;5051087;28;20024;-67
2021/04/03 14:46:04;;;;;;;3.33;0.80;;;;;;;16.46;23.46;101394.53;5050179;28;20064;-67
2021/04/03 14:48:30;;;;;;;1.48;0.90;;;;;;;16.25;23.04;101375.47;5051403;28;20029;-68
2021/04/03 14:50:55;;;;;;;1.60;0.70;;;;;;;16.51;23.79;101381.13;5051530;28;20025;-67
2021/04/03 14:53:21;;;;;;;2.15;0.90;;;;;;;16.31;23.22;101384.22;5033475;28;20052;-67
2021/04/03 14:55:46;;;;;;;1.23;0.80;;;;;;;15.90;23.50;101383.25;5050293;28;20052;-67
2021/04/03 14:58:11;;;;;;;1.35;0.90;;;;;;;16.12;23.40;101377.53;5050303;28;20029;-67
2021/04/03 15:00:37;;;;;;;4.28;0.82;;;;;;;16.26;23.10;101379.88;5049703;28;20104;-67
2021/04/03 15:03:02;;;;;;;3.13;1.27;;;;;;;16.35;23.19;101370.84;5050819;28;20040;-67
2021/04/03 15:05:27;;;;;;;2.40;1.10;;;;;;;16.01;23.58;101384.84;5048404;28;20017;-67
2021/04/03 15:07:53;;;;;;;1.38;0.93;;;;;;;15.80;23.60;101383.47;5051690;28;20495;-67
2021/04/03 15:10:18;;;;;;;2.83;0.80;;;;;;;16.19;23.46;101375.59;5050815;28;20440;-68
2021/04/03 15:12:43;;;;;;;1.17;0.88;;;;;;;16.10;23.93;101376.66;5049704;28;20059;-67
2021/04/03 15:15:10;;;;;;;1.67;1.10;;;;;;;15.98;23.34;101377.81;5049936;28;20033;-67
2021/04/03 15:17:35;;;;;;;1.55;0.70;;;;;;;15.90;24.20;101379.69;5050062;28;20044;-67
2021/04/03 15:20:00;;;;;;;1.20;0.85;;;;;;;16.02;24.25;101374.19;5050131;28;20032;-67
2021/04/03 15:22:26;;;;;;;1.13;0.80;;;;;;;16.04;24.65;101379.44;5051187;28;20033;-67